Time,TemperatureF,DewpointF,PressureIn,WindDirection,WindDirectionDegrees,WindSpeedMPH,WindSpeedGustMPH,Humidity,HourlyPrecipIn,Conditions,Clouds,dailyrainin,SoftwareType,DateUTC
2013-09-28 00:01:00,57.5,52.4,30.16,NNW,329,0.0,0.0,83,0.00,,,0.00,WUHU216DAVISVP2,2013-09-28 04:01:00,
2013-09-28 00:06:00,57.3,52.2,30.16,NNW,329,0.0,0.0,83,0.00,,,0.00,WUHU216DAVISVP2,2013-09-28 04:06:00,
2013-09-28 00:11:00,57.2,52.1,30.16,NNW,329,0.0,0.0,83,0.00,,,0.00,WUHU216DAVISVP2,2013-09-28 04:11:00,
2013-09-28 00:16:00,56.9,51.8,30.16,NNW,329,0.0,0.0,83,0.00,,,0.00,WUHU216DAVISVP2,2013-09-28 04:16:00,
2013-09-28 00:21:00,56.7,51.6,30.16,NNW,329,0.0,0.0,83,0.00,,,0.00,WUHU216DAVISVP2,2013-09-28 04:21:00,
2013-09-28 00:26:00,56.6,51.5,30.17,NNW,329,0.0,0.0,83,0.00,,,0.00,WUHU216DAVISVP2,2013-09-28 04:26:00,
2013-09-28 00:31:00,56.5,51.7,30.17,NNW,329,0.0,0.0,84,0.00,,,0.00,WUHU216DAVISVP2,2013-09-28 04:31:00,
2013-09-28 00:36:00,56.3,51.5,30.17,NNW,329,0.0,0.0,84,0.00,,,0.00,WUHU216DAVISVP2,2013-09-28 04:36:00,
2013-09-28 00:41:00,56.0,51.2,30.17,NNW,329,0.0,0.0,84,0.00,,,0.00,WUHU216DAVISVP2,2013-09-28 04:41:00,
2013-09-28 00:46:00,56.0,51.2,30.17,NNW,329,0.0,0.0,84,0.00,,,0.00,WUHU216DAVISVP2,2013-09-28 04:46:00,
2013-09-28 00:51:00,55.9,51.1,30.17,NNW,329,0.0,0.0,84,0.00,,,0.00,WUHU216DAVISVP2,2013-09-28 04:51:00,
2013-09-28 00:56:00,55.9,51.1,30.17,NNW,329,0.0,0.0,84,0.00,,,0.00,WUHU216DAVISVP2,2013-09-28 04:56:00,
2013-09-28 01:01:00,55.7,50.9,30.17,NNW,329,0.0,0.0,84,0.00,,,0.00,WUHU216DAVISVP2,2013-09-28 05:01:00,
2013-09-28 01:06:00,55.6,51.2,30.17,NNW,329,0.0,0.0,85,0.00,,,0.00,WUHU216DAVISVP2,2013-09-28 05:06:00,
2013-09-28 01:11:00,55.6,51.2,30.17,NNW,329,0.0,0.0,85,0.00,,,0.00,WUHU216DAVISVP2,2013-09-28 05:11:00,
2013-09-28 01:16:00,55.4,51.0,30.17,NNW,329,0.0,0.0,85,0.00,,,0.00,WUHU216DAVISVP2,2013-09-28 05:16:00,
2013-09-28 01:21:00,55.4,51.0,30.17,NNW,329,0.0,0.0,85,0.00,,,0.00,WUHU216DAVISVP2,2013-09-28 05:21:00,
2013-09-28 01:26:00,55.4,51.0,30.17,NNW,329,0.0,0.0,85,0.00,,,0.00,WUHU216DAVISVP2,2013-09-28 05:26:00,
2013-09-28 01:31:00,55.3,50.9,30.17,NNW,329,0.0,0.0,85,0.00,,,0.00,WUHU216DAVISVP2,2013-09-28 05:31:00,
2013-09-28 01:36:00,55.0,50.6,30.17,NNW,329,0.0,0.0,85,0.00,,,0.00,WUHU216DAVISVP2,2013-09-28 05:36:00,
2013-09-28 01:41:00,55.0,50.6,30.17,NNW,329,0.0,0.0,85,0.00,,,0.00,WUHU216DAVISVP2,2013-09-28 05:41:00,
2013-09-28 01:46:00,55.0,50.6,30.17,NNW,329,0.0,0.0,85,0.00,,,0.00,WUHU216DAVISVP2,2013-09-28 05:46:00,
2013-09-28 01:51:00,55.0,50.6,30.17,NNW,329,0.0,0.0,85,0.00,,,0.00,WUHU216DAVISVP2,2013-09-28 05:51:00,
2013-09-28 01:56:00,54.8,50.4,30.16,NNW,329,0.0,0.0,85,0.00,,,0.00,WUHU216DAVISVP2,2013-09-28 05:56:00,
2013-09-28 02:01:00,54.7,50.3,30.16,NNW,329,0.0,0.0,85,0.00,,,0.00,WUHU216DAVISVP2,2013-09-28 06:01:00,
2013-09-28 02:06:00,54.7,50.3,30.16,NNW,329,0.0,0.0,85,0.00,,,0.00,WUHU216DAVISVP2,2013-09-28 06:06:00,
2013-09-28 02:11:00,54.7,50.6,30.16,NNW,329,0.0,0.0,86,0.00,,,0.00,WUHU216DAVISVP2,2013-09-28 06:11:00,
2013-09-28 02:16:00,54.5,50.1,30.16,NNW,329,0.0,0.0,85,0.00,,,0.00,WUHU216DAVISVP2,2013-09-28 06:16:00,
2013-09-28 02:21:00,54.5,50.4,30.16,NNW,329,0.0,0.0,86,0.00,,,0.00,WUHU216DAVISVP2,2013-09-28 06:21:00,
2013-09-28 02:26:00,54.5,50.4,30.16,NNW,329,0.0,0.0,86,0.00,,,0.00,WUHU216DAVISVP2,2013-09-28 06:26:00,
2013-09-28 02:31:00,54.4,50.3,30.16,NNW,329,0.0,0.0,86,0.00,,,0.00,WUHU216DAVISVP2,2013-09-28 06:31:00,
2013-09-28 02:36:00,54.4,50.3,30.16,NNW,329,0.0,0.0,86,0.00,,,0.00,WUHU216DAVISVP2,2013-09-28 06:36:00,
2013-09-28 02:41:00,54.4,50.3,30.16,NNW,329,0.0,0.0,86,0.00,,,0.00,WUHU216DAVISVP2,2013-09-28 06:41:00,
2013-09-28 02:46:00,54.2,50.1,30.16,NNW,329,0.0,0.0,86,0.00,,,0.00,WUHU216DAVISVP2,2013-09-28 06:46:00,
2013-09-28 02:51:00,53.9,49.8,30.16,NNW,329,0.0,0.0,86,0.00,,,0.00,WUHU216DAVISVP2,2013-09-28 06:51:00,
2013-09-28 02:56:00,53.8,49.7,30.15,NNW,329,0.0,0.0,86,0.00,,,0.00,WUHU216DAVISVP2,2013-09-28 06:56:00,
2013-09-28 03:01:00,53.8,49.7,30.15,NNW,329,0.0,0.0,86,0.00,,,0.00,WUHU216DAVISVP2,2013-09-28 07:01:00,
2013-09-28 03:06:00,53.8,50.0,30.15,NNW,329,0.0,0.0,87,0.00,,,0.00,WUHU216DAVISVP2,2013-09-28 07:06:00,
2013-09-28 03:12:00,53.8,50.0,30.15,NNW,329,0.0,0.0,87,0.00,,,0.00,WUHU216DAVISVP2,2013-09-28 07:12:00,
2013-09-28 03:17:00,53.9,50.1,30.15,NNW,329,0.0,0.0,87,0.00,,,0.00,WUHU216DAVISVP2,2013-09-28 07:17:00,
2013-09-28 03:22:00,53.8,50.0,30.15,NNW,329,0.0,0.0,87,0.00,,,0.00,WUHU216DAVISVP2,2013-09-28 07:22:00,
2013-09-28 03:27:00,53.8,50.0,30.15,NNW,329,0.0,0.0,87,0.00,,,0.00,WUHU216DAVISVP2,2013-09-28 07:27:00,
2013-09-28 03:32:00,53.8,50.0,30.15,NNW,329,0.0,0.0,87,0.00,,,0.00,WUHU216DAVISVP2,2013-09-28 07:32:00,
2013-09-28 03:37:00,53.6,49.8,30.15,NNW,329,0.0,0.0,87,0.01,,,0.01,WUHU216DAVISVP2,2013-09-28 07:37:00,
2013-09-28 03:42:00,53.6,49.8,30.14,NNW,329,0.0,0.0,87,0.01,,,0.01,WUHU216DAVISVP2,2013-09-28 07:42:00,
2013-09-28 03:47:00,53.6,49.8,30.14,NNW,329,0.0,0.0,87,0.01,,,0.01,WUHU216DAVISVP2,2013-09-28 07:47:00,
2013-09-28 03:52:00,53.6,49.8,30.14,NNW,329,0.0,0.0,87,0.01,,,0.01,WUHU216DAVISVP2,2013-09-28 07:52:00,
2013-09-28 03:57:00,53.8,50.3,30.14,NNW,329,0.0,0.0,88,0.01,,,0.01,WUHU216DAVISVP2,2013-09-28 07:57:00,
2013-09-28 04:02:00,53.8,50.3,30.14,NNW,329,0.0,0.0,88,0.01,,,0.01,WUHU216DAVISVP2,2013-09-28 08:02:00,
2013-09-28 04:07:00,53.8,50.3,30.14,NNW,329,0.0,0.0,88,0.01,,,0.01,WUHU216DAVISVP2,2013-09-28 08:07:00,
2013-09-28 04:12:00,53.6,50.1,30.14,NNW,329,0.0,0.0,88,0.01,,,0.01,WUHU216DAVISVP2,2013-09-28 08:12:00,
2013-09-28 04:17:00,53.6,50.1,30.14,NNW,329,0.0,0.0,88,0.01,,,0.01,WUHU216DAVISVP2,2013-09-28 08:17:00,
2013-09-28 04:22:00,53.5,50.0,30.14,NNW,329,0.0,0.0,88,0.01,,,0.01,WUHU216DAVISVP2,2013-09-28 08:22:00,
2013-09-28 04:27:00,53.3,49.8,30.15,NNW,329,0.0,0.0,88,0.01,,,0.01,WUHU216DAVISVP2,2013-09-28 08:27:00,
2013-09-28 04:32:00,53.3,49.8,30.15,NNW,329,0.0,0.0,88,0.01,,,0.01,WUHU216DAVISVP2,2013-09-28 08:32:00,
2013-09-28 04:37:00,53.3,49.8,30.15,NNW,329,0.0,0.0,88,0.00,,,0.01,WUHU216DAVISVP2,2013-09-28 08:37:00,
2013-09-28 04:42:00,53.5,50.0,30.15,NNW,329,0.0,0.0,88,0.00,,,0.01,WUHU216DAVISVP2,2013-09-28 08:42:00,
2013-09-28 04:47:00,53.5,50.0,30.15,NNW,329,0.0,0.0,88,0.00,,,0.01,WUHU216DAVISVP2,2013-09-28 08:47:00,
2013-09-28 04:52:00,53.6,50.1,30.15,NNW,329,0.0,0.0,88,0.00,,,0.01,WUHU216DAVISVP2,2013-09-28 08:52:00,
2013-09-28 04:57:00,53.8,50.3,30.15,NNW,329,0.0,0.0,88,0.00,,,0.01,WUHU216DAVISVP2,2013-09-28 08:57:00,
2013-09-28 05:02:00,54.1,50.9,30.15,NNW,329,0.0,0.0,89,0.00,,,0.01,WUHU216DAVISVP2,2013-09-28 09:02:00,
2013-09-28 05:07:00,53.9,50.4,30.15,NNW,329,0.0,0.0,88,0.00,,,0.01,WUHU216DAVISVP2,2013-09-28 09:07:00,
2013-09-28 05:12:00,53.9,50.4,30.15,NNW,329,0.0,0.0,88,0.00,,,0.01,WUHU216DAVISVP2,2013-09-28 09:12:00,
2013-09-28 05:17:00,54.1,50.9,30.15,NNW,329,0.0,0.0,89,0.00,,,0.01,WUHU216DAVISVP2,2013-09-28 09:17:00,
2013-09-28 05:22:00,54.2,51.0,30.15,NNW,329,0.0,0.0,89,0.00,,,0.01,WUHU216DAVISVP2,2013-09-28 09:22:00,
2013-09-28 05:27:00,54.2,51.0,30.16,NNW,329,0.0,0.0,89,0.00,,,0.01,WUHU216DAVISVP2,2013-09-28 09:27:00,
2013-09-28 05:32:00,54.1,50.9,30.16,NNW,329,0.0,0.0,89,0.00,,,0.01,WUHU216DAVISVP2,2013-09-28 09:32:00,
2013-09-28 05:37:00,54.1,50.9,30.16,NNW,329,0.0,0.0,89,0.00,,,0.01,WUHU216DAVISVP2,2013-09-28 09:37:00,
2013-09-28 05:42:00,54.1,50.9,30.16,NNW,329,0.0,0.0,89,0.00,,,0.01,WUHU216DAVISVP2,2013-09-28 09:42:00,
2013-09-28 05:47:00,53.9,50.7,30.16,NNW,329,0.0,0.0,89,0.00,,,0.01,WUHU216DAVISVP2,2013-09-28 09:47:00,
2013-09-28 05:52:00,53.8,50.6,30.16,NNW,329,0.0,0.0,89,0.00,,,0.01,WUHU216DAVISVP2,2013-09-28 09:52:00,
2013-09-28 05:57:00,53.6,50.4,30.17,NNW,329,0.0,0.0,89,0.00,,,0.01,WUHU216DAVISVP2,2013-09-28 09:57:00,
2013-09-28 06:02:00,53.5,50.3,30.17,NNW,329,0.0,0.0,89,0.00,,,0.01,WUHU216DAVISVP2,2013-09-28 10:02:00,
2013-09-28 06:07:00,53.9,50.7,30.17,NNW,329,0.0,0.0,89,0.00,,,0.01,WUHU216DAVISVP2,2013-09-28 10:07:00,
2013-09-28 06:12:00,53.6,50.4,30.17,NNW,329,0.0,0.0,89,0.00,,,0.01,WUHU216DAVISVP2,2013-09-28 10:12:00,
2013-09-28 06:17:00,53.6,50.4,30.17,NNW,329,0.0,0.0,89,0.00,,,0.01,WUHU216DAVISVP2,2013-09-28 10:17:00,
2013-09-28 06:22:00,53.3,50.1,30.17,NNW,329,0.0,0.0,89,0.00,,,0.01,WUHU216DAVISVP2,2013-09-28 10:22:00,
2013-09-28 06:27:00,53.2,50.0,30.18,NNW,329,0.0,0.0,89,0.00,,,0.01,WUHU216DAVISVP2,2013-09-28 10:27:00,
2013-09-28 06:32:00,53.2,50.3,30.18,NNW,329,0.0,0.0,90,0.00,,,0.01,WUHU216DAVISVP2,2013-09-28 10:32:00,
2013-09-28 06:37:00,53.2,50.0,30.18,NNW,329,0.0,0.0,89,0.00,,,0.01,WUHU216DAVISVP2,2013-09-28 10:37:00,
2013-09-28 06:42:00,53.2,50.3,30.18,NNW,329,0.0,0.0,90,0.00,,,0.01,WUHU216DAVISVP2,2013-09-28 10:42:00,
2013-09-28 06:47:00,53.1,50.2,30.18,NNW,329,0.0,0.0,90,0.00,,,0.01,WUHU216DAVISVP2,2013-09-28 10:47:00,
2013-09-28 06:52:00,52.9,50.0,30.18,NNW,329,0.0,0.0,90,0.00,,,0.01,WUHU216DAVISVP2,2013-09-28 10:52:00,
2013-09-28 06:57:00,52.9,50.0,30.19,NNW,329,0.0,0.0,90,0.00,,,0.01,WUHU216DAVISVP2,2013-09-28 10:57:00,
2013-09-28 07:02:00,53.1,50.2,30.19,NNW,329,0.0,0.0,90,0.00,,,0.01,WUHU216DAVISVP2,2013-09-28 11:02:00,
2013-09-28 07:07:00,52.9,50.0,30.19,NNW,329,0.0,0.0,90,0.00,,,0.01,WUHU216DAVISVP2,2013-09-28 11:07:00,
2013-09-28 07:12:00,52.9,50.0,30.19,NNW,329,0.0,0.0,90,0.00,,,0.01,WUHU216DAVISVP2,2013-09-28 11:12:00,
2013-09-28 07:17:00,53.2,50.3,30.19,NNW,329,0.0,0.0,90,0.00,,,0.01,WUHU216DAVISVP2,2013-09-28 11:17:00,
2013-09-28 07:22:00,53.2,50.3,30.19,NNW,329,0.0,0.0,90,0.00,,,0.01,WUHU216DAVISVP2,2013-09-28 11:22:00,
2013-09-28 07:27:00,53.2,50.3,30.20,NNW,329,0.0,0.0,90,0.00,,,0.01,WUHU216DAVISVP2,2013-09-28 11:27:00,
2013-09-28 07:32:00,53.2,50.3,30.20,NNW,329,0.0,0.0,90,0.00,,,0.01,WUHU216DAVISVP2,2013-09-28 11:32:00,
2013-09-28 07:37:00,53.3,50.4,30.20,NNW,329,0.0,0.0,90,0.00,,,0.01,WUHU216DAVISVP2,2013-09-28 11:37:00,
2013-09-28 07:42:00,53.5,50.6,30.20,NNW,329,0.0,0.0,90,0.00,,,0.01,WUHU216DAVISVP2,2013-09-28 11:42:00,
2013-09-28 07:47:00,53.5,50.6,30.20,NNW,329,0.0,0.0,90,0.00,,,0.01,WUHU216DAVISVP2,2013-09-28 11:47:00,
2013-09-28 07:52:00,53.8,50.9,30.20,NNW,329,0.0,0.0,90,0.00,,,0.01,WUHU216DAVISVP2,2013-09-28 11:52:00,
2013-09-28 07:57:00,54.4,51.5,30.21,NNW,329,0.0,0.0,90,0.00,,,0.01,WUHU216DAVISVP2,2013-09-28 11:57:00,
2013-09-28 08:02:00,54.8,51.9,30.21,NNW,329,0.0,0.0,90,0.00,,,0.01,WUHU216DAVISVP2,2013-09-28 12:02:00,
2013-09-28 08:07:00,55.4,52.8,30.21,NNW,329,0.0,0.0,91,0.00,,,0.01,WUHU216DAVISVP2,2013-09-28 12:07:00,
2013-09-28 08:12:00,55.9,53.3,30.20,NNW,329,0.0,0.0,91,0.00,,,0.01,WUHU216DAVISVP2,2013-09-28 12:12:00,
2013-09-28 08:17:00,56.5,53.9,30.20,NNW,329,0.0,0.0,91,0.00,,,0.01,WUHU216DAVISVP2,2013-09-28 12:17:00,
2013-09-28 08:22:00,56.7,54.1,30.20,NNW,329,0.0,0.0,91,0.00,,,0.01,WUHU216DAVISVP2,2013-09-28 12:22:00,
2013-09-28 08:27:00,57.6,55.0,30.21,NNW,329,0.0,1.0,91,0.00,,,0.01,WUHU216DAVISVP2,2013-09-28 12:27:00,
2013-09-28 08:32:00,58.4,55.7,30.21,NNW,329,0.0,2.0,91,0.00,,,0.01,WUHU216DAVISVP2,2013-09-28 12:32:00,
2013-09-28 08:37:00,59.0,56.3,30.21,NNW,329,0.0,2.0,91,0.00,,,0.01,WUHU216DAVISVP2,2013-09-28 12:37:00,
2013-09-28 08:42:00,59.5,56.8,30.21,NNW,329,0.0,1.0,91,0.00,,,0.01,WUHU216DAVISVP2,2013-09-28 12:42:00,
2013-09-28 08:47:00,59.9,57.2,30.21,NNW,330,2.0,2.0,91,0.00,,,0.01,WUHU216DAVISVP2,2013-09-28 12:47:00,
2013-09-28 08:52:00,60.2,57.2,30.21,WNW,296,0.0,4.0,90,0.00,,,0.01,WUHU216DAVISVP2,2013-09-28 12:52:00,
2013-09-28 08:57:00,60.5,57.5,30.22,North,4,0.0,4.0,90,0.00,,,0.01,WUHU216DAVISVP2,2013-09-28 12:57:00,
2013-09-28 09:02:00,60.9,57.9,30.22,East,86,0.0,4.0,90,0.00,,,0.01,WUHU216DAVISVP2,2013-09-28 13:02:00,
2013-09-28 09:07:00,61.0,58.0,30.22,North,352,2.0,2.0,90,0.00,,,0.01,WUHU216DAVISVP2,2013-09-28 13:07:00,
2013-09-28 09:12:00,61.2,58.2,30.22,NNW,328,0.0,4.0,90,0.00,,,0.01,WUHU216DAVISVP2,2013-09-28 13:12:00,
2013-09-28 09:17:00,61.2,57.9,30.22,East,92,0.0,4.0,89,0.00,,,0.01,WUHU216DAVISVP2,2013-09-28 13:17:00,
2013-09-28 09:22:00,61.3,58.0,30.22,East,89,0.0,2.0,89,0.00,,,0.01,WUHU216DAVISVP2,2013-09-28 13:22:00,
2013-09-28 09:27:00,61.6,58.0,30.22,NW,318,1.0,4.0,88,0.00,,,0.01,WUHU216DAVISVP2,2013-09-28 13:27:00,
2013-09-28 09:32:00,61.6,58.0,30.22,North,354,0.0,4.0,88,0.00,,,0.01,WUHU216DAVISVP2,2013-09-28 13:32:00,
2013-09-28 09:37:00,62.0,58.4,30.22,NW,319,0.0,2.0,88,0.00,,,0.01,WUHU216DAVISVP2,2013-09-28 13:37:00,
2013-09-28 09:42:00,62.4,58.5,30.23,NW,319,0.0,2.0,87,0.00,,,0.01,WUHU216DAVISVP2,2013-09-28 13:42:00,
2013-09-28 09:47:00,62.9,58.7,30.23,NW,319,0.0,2.0,86,0.00,,,0.01,WUHU216DAVISVP2,2013-09-28 13:47:00,
2013-09-28 09:52:00,63.2,58.9,30.23,NW,320,0.0,2.0,86,0.00,,,0.01,WUHU216DAVISVP2,2013-09-28 13:52:00,
2013-09-28 09:57:00,63.4,58.8,30.23,ESE,123,1.0,2.0,85,0.00,,,0.01,WUHU216DAVISVP2,2013-09-28 13:57:00,
2013-09-28 10:02:00,63.9,59.3,30.23,North,8,0.0,1.0,85,0.00,,,0.01,WUHU216DAVISVP2,2013-09-28 14:02:00,
2013-09-28 10:07:00,63.9,58.3,30.23,ENE,75,0.0,2.0,82,0.00,,,0.01,WUHU216DAVISVP2,2013-09-28 14:07:00,
2013-09-28 10:12:00,64.2,59.0,30.24,North,1,0.0,2.0,83,0.00,,,0.01,WUHU216DAVISVP2,2013-09-28 14:12:00,
2013-09-28 10:17:00,64.8,59.6,30.24,North,350,2.0,6.0,83,0.00,,,0.01,WUHU216DAVISVP2,2013-09-28 14:17:00,
2013-09-28 10:22:00,65.2,59.3,30.24,NNW,335,0.0,6.0,81,0.00,,,0.01,WUHU216DAVISVP2,2013-09-28 14:22:00,
2013-09-28 10:27:00,65.5,59.2,30.24,NW,304,1.0,4.0,80,0.00,,,0.01,WUHU216DAVISVP2,2013-09-28 14:27:00,
2013-09-28 10:32:00,65.3,59.0,30.24,West,268,0.0,6.0,80,0.00,,,0.01,WUHU216DAVISVP2,2013-09-28 14:32:00,
2013-09-28 10:37:00,65.6,58.6,30.24,NE,44,0.0,6.0,78,0.00,,,0.01,WUHU216DAVISVP2,2013-09-28 14:37:00,
2013-09-28 10:42:00,65.5,58.2,30.23,North,8,2.0,7.0,77,0.00,,,0.01,WUHU216DAVISVP2,2013-09-28 14:42:00,
2013-09-28 10:47:00,65.0,57.0,30.23,North,0,4.0,7.0,75,0.00,,,0.01,WUHU216DAVISVP2,2013-09-28 14:47:00,
2013-09-28 10:52:00,65.2,57.6,30.23,East,88,0.0,8.0,76,0.00,,,0.01,WUHU216DAVISVP2,2013-09-28 14:52:00,
2013-09-28 10:57:00,66.1,58.1,30.23,NNW,328,0.0,8.0,75,0.00,,,0.01,WUHU216DAVISVP2,2013-09-28 14:57:00,
2013-09-28 11:02:00,66.9,58.5,30.23,NW,308,2.0,4.0,74,0.00,,,0.01,WUHU216DAVISVP2,2013-09-28 15:02:00,
2013-09-28 11:07:00,66.6,57.4,30.23,WNW,302,2.0,11.0,72,0.00,,,0.01,WUHU216DAVISVP2,2013-09-28 15:07:00,
2013-09-28 11:12:00,66.3,57.2,30.23,NW,316,0.0,11.0,72,0.00,,,0.01,WUHU216DAVISVP2,2013-09-28 15:12:00,
2013-09-28 11:17:00,66.0,56.5,30.23,NNW,344,1.0,10.0,71,0.00,,,0.01,WUHU216DAVISVP2,2013-09-28 15:17:00,
2013-09-28 11:22:00,65.8,56.3,30.23,WNW,289,6.0,9.0,71,0.00,,,0.01,WUHU216DAVISVP2,2013-09-28 15:22:00,
2013-09-28 11:27:00,65.6,55.7,30.23,NW,320,0.0,6.0,70,0.00,,,0.01,WUHU216DAVISVP2,2013-09-28 15:27:00,
2013-09-28 11:32:00,65.6,55.7,30.23,NW,320,2.0,6.0,70,0.00,,,0.01,WUHU216DAVISVP2,2013-09-28 15:32:00,
2013-09-28 11:37:00,65.6,55.7,30.23,NNW,346,0.0,7.0,70,0.00,,,0.01,WUHU216DAVISVP2,2013-09-28 15:37:00,
2013-09-28 11:42:00,65.8,55.9,30.23,NNE,28,0.0,7.0,70,0.00,,,0.01,WUHU216DAVISVP2,2013-09-28 15:42:00,
2013-09-28 11:47:00,66.4,56.1,30.23,NW,322,0.0,4.0,69,0.00,,,0.01,WUHU216DAVISVP2,2013-09-28 15:47:00,
2013-09-28 11:53:00,67.4,57.0,30.22,West,274,0.0,6.0,69,0.00,,,0.01,WUHU216DAVISVP2,2013-09-28 15:53:00,
2013-09-28 11:58:00,68.6,57.8,30.22,North,0,2.0,6.0,68,0.00,,,0.01,WUHU216DAVISVP2,2013-09-28 15:58:00,
2013-09-28 12:03:00,68.8,57.2,30.22,East,86,1.0,6.0,66,0.00,,,0.01,WUHU216DAVISVP2,2013-09-28 16:03:00,
2013-09-28 12:08:00,68.4,56.8,30.22,ENE,68,0.0,6.0,66,0.00,,,0.01,WUHU216DAVISVP2,2013-09-28 16:08:00,
2013-09-28 12:13:00,68.4,56.8,30.22,NW,315,0.0,6.0,66,0.00,,,0.01,WUHU216DAVISVP2,2013-09-28 16:13:00,
2013-09-28 12:18:00,68.1,56.1,30.22,NNE,17,0.0,2.0,65,0.00,,,0.01,WUHU216DAVISVP2,2013-09-28 16:18:00,
2013-09-28 12:23:00,68.6,57.4,30.22,NW,316,0.0,2.0,67,0.00,,,0.01,WUHU216DAVISVP2,2013-09-28 16:23:00,
2013-09-28 12:28:00,68.9,56.8,30.22,ENE,76,0.0,4.0,65,0.00,,,0.01,WUHU216DAVISVP2,2013-09-28 16:28:00,
2013-09-28 12:33:00,69.1,57.0,30.22,NNW,332,0.0,8.0,65,0.00,,,0.01,WUHU216DAVISVP2,2013-09-28 16:33:00,
2013-09-28 12:38:00,68.9,56.4,30.22,NW,325,0.0,8.0,64,0.00,,,0.01,WUHU216DAVISVP2,2013-09-28 16:38:00,
2013-09-28 12:43:00,69.1,57.4,30.22,NW,326,0.0,4.0,66,0.00,,,0.01,WUHU216DAVISVP2,2013-09-28 16:43:00,
2013-09-28 12:48:00,69.6,57.5,30.22,NE,41,0.0,2.0,65,0.00,,,0.01,WUHU216DAVISVP2,2013-09-28 16:48:00,
2013-09-28 12:53:00,69.8,56.8,30.21,NW,326,2.0,2.0,63,0.00,,,0.01,WUHU216DAVISVP2,2013-09-28 16:53:00,
2013-09-28 12:58:00,69.9,56.9,30.21,North,1,0.0,2.0,63,0.00,,,0.01,WUHU216DAVISVP2,2013-09-28 16:58:00,
2013-09-28 13:03:00,70.1,57.1,30.21,ENE,76,0.0,2.0,63,0.00,,,0.01,WUHU216DAVISVP2,2013-09-28 17:03:00,
2013-09-28 13:08:00,69.9,56.5,30.21,ENE,75,0.0,4.0,62,0.00,,,0.01,WUHU216DAVISVP2,2013-09-28 17:08:00,
2013-09-28 13:13:00,69.4,56.9,30.21,East,82,0.0,4.0,64,0.00,,,0.01,WUHU216DAVISVP2,2013-09-28 17:13:00,
2013-09-28 13:19:00,70.1,57.5,30.21,East,82,0.0,0.0,64,0.00,,,0.01,WUHU216DAVISVP2,2013-09-28 17:19:00,
2013-09-28 13:24:00,69.9,56.5,30.20,ENE,76,0.0,1.0,62,0.00,,,0.01,WUHU216DAVISVP2,2013-09-28 17:24:00,
2013-09-28 13:29:00,69.6,56.2,30.20,East,99,0.0,6.0,62,0.00,,,0.01,WUHU216DAVISVP2,2013-09-28 17:29:00,
2013-09-28 13:34:00,69.4,56.9,30.20,East,99,0.0,6.0,64,0.00,,,0.01,WUHU216DAVISVP2,2013-09-28 17:34:00,
2013-09-28 13:39:00,69.1,56.2,30.20,East,96,0.0,2.0,63,0.00,,,0.01,WUHU216DAVISVP2,2013-09-28 17:39:00,
2013-09-28 13:44:00,68.8,55.9,30.20,East,96,0.0,0.0,63,0.00,,,0.01,WUHU216DAVISVP2,2013-09-28 17:44:00,
2013-09-28 13:49:00,68.9,56.8,30.20,NNE,32,0.0,0.0,65,0.00,,,0.01,WUHU216DAVISVP2,2013-09-28 17:49:00,
2013-09-28 13:54:00,69.8,57.3,30.19,North,359,0.0,0.0,64,0.00,,,0.01,WUHU216DAVISVP2,2013-09-28 17:54:00,
2013-09-28 13:59:00,71.1,58.5,30.19,NNW,342,0.0,7.0,64,0.00,,,0.01,WUHU216DAVISVP2,2013-09-28 17:59:00,
2013-09-28 14:04:00,71.6,58.1,30.19,NNE,28,0.0,7.0,62,0.00,,,0.01,WUHU216DAVISVP2,2013-09-28 18:04:00,
2013-09-28 14:09:00,71.8,58.3,30.18,North,3,0.0,6.0,62,0.00,,,0.01,WUHU216DAVISVP2,2013-09-28 18:09:00,
2013-09-28 14:14:00,71.6,58.1,30.18,NE,45,0.0,6.0,62,0.00,,,0.01,WUHU216DAVISVP2,2013-09-28 18:14:00,
2013-09-28 14:19:00,72.3,59.2,30.18,North,0,0.0,6.0,63,0.00,,,0.01,WUHU216DAVISVP2,2013-09-28 18:19:00,
2013-09-28 14:24:00,72.7,58.2,30.18,North,0,1.0,6.0,60,0.00,,,0.01,WUHU216DAVISVP2,2013-09-28 18:24:00,
2013-09-28 14:29:00,72.8,58.3,30.18,North,350,0.0,4.0,60,0.00,,,0.01,WUHU216DAVISVP2,2013-09-28 18:29:00,
2013-09-28 14:34:00,72.5,58.0,30.18,East,85,0.0,2.0,60,0.00,,,0.01,WUHU216DAVISVP2,2013-09-28 18:34:00,
2013-09-28 14:39:00,71.8,56.9,30.17,East,85,0.0,2.0,59,0.00,,,0.01,WUHU216DAVISVP2,2013-09-28 18:39:00,
2013-09-28 14:44:00,71.1,56.7,30.17,SE,127,0.0,4.0,60,0.00,,,0.01,WUHU216DAVISVP2,2013-09-28 18:44:00,
2013-09-28 14:49:00,71.6,57.6,30.17,ENE,72,0.0,4.0,61,0.00,,,0.01,WUHU216DAVISVP2,2013-09-28 18:49:00,
2013-09-28 14:54:00,72.0,57.5,30.17,NW,318,1.0,7.0,60,0.00,,,0.01,WUHU216DAVISVP2,2013-09-28 18:54:00,
2013-09-28 14:59:00,71.5,57.5,30.17,ESE,113,0.0,7.0,61,0.00,,,0.01,WUHU216DAVISVP2,2013-09-28 18:59:00,
2013-09-28 15:04:00,70.9,57.0,30.17,North,0,0.0,6.0,61,0.00,,,0.01,WUHU216DAVISVP2,2013-09-28 19:04:00,
2013-09-28 15:09:00,70.6,57.1,30.16,North,359,0.0,2.0,62,0.00,,,0.01,WUHU216DAVISVP2,2013-09-28 19:09:00,
2013-09-28 15:14:00,70.3,56.4,30.16,East,96,0.0,0.0,61,0.00,,,0.01,WUHU216DAVISVP2,2013-09-28 19:14:00,
2013-09-28 15:19:00,70.6,57.1,30.16,East,96,0.0,0.0,62,0.00,,,0.01,WUHU216DAVISVP2,2013-09-28 19:19:00,
2013-09-28 15:24:00,71.5,57.5,30.16,SE,128,2.0,2.0,61,0.00,,,0.01,WUHU216DAVISVP2,2013-09-28 19:24:00,
2013-09-28 15:29:00,71.5,57.5,30.16,NNW,333,1.0,2.0,61,0.00,,,0.01,WUHU216DAVISVP2,2013-09-28 19:29:00,
2013-09-28 15:35:00,71.1,57.2,30.16,NNW,329,0.0,2.0,61,0.00,,,0.01,WUHU216DAVISVP2,2013-09-28 19:35:00,
2013-09-28 15:40:00,70.8,56.4,30.16,NNW,339,0.0,1.0,60,0.00,,,0.01,WUHU216DAVISVP2,2013-09-28 19:40:00,
2013-09-28 15:45:00,71.3,56.7,30.16,East,100,0.0,2.0,60,0.00,,,0.01,WUHU216DAVISVP2,2013-09-28 19:45:00,
2013-09-28 15:50:00,71.6,57.0,30.16,SE,124,1.0,6.0,60,0.00,,,0.01,WUHU216DAVISVP2,2013-09-28 19:50:00,
2013-09-28 15:55:00,71.5,57.1,30.15,NE,45,0.0,6.0,60,0.00,,,0.01,WUHU216DAVISVP2,2013-09-28 19:55:00,
2013-09-28 16:00:00,71.8,57.8,30.15,North,8,0.0,6.0,61,0.00,,,0.01,WUHU216DAVISVP2,2013-09-28 20:00:00,
2013-09-28 16:06:00,71.3,57.3,30.15,NE,51,0.0,6.0,61,0.00,,,0.01,WUHU216DAVISVP2,2013-09-28 20:06:00,
2013-09-28 16:11:00,71.3,57.3,30.15,NE,51,0.0,0.0,61,0.00,,,0.01,WUHU216DAVISVP2,2013-09-28 20:11:00,
2013-09-28 16:29:00,71.1,57.0,30.15,NE,49,1.0,1.0,61,0.00,,,0.01,WUHU216DAVISVP2,2013-09-28 20:29:00,
2013-09-28 16:34:00,70.6,56.5,30.15,NW,325,0.0,1.0,61,0.00,,,0.01,WUHU216DAVISVP2,2013-09-28 20:34:00,
2013-09-28 16:39:00,70.3,56.9,30.15,NW,323,0.0,0.0,62,0.00,,,0.01,WUHU216DAVISVP2,2013-09-28 20:39:00,
2013-09-28 16:44:00,69.9,56.9,30.15,NW,323,0.0,0.0,63,0.00,,,0.01,WUHU216DAVISVP2,2013-09-28 20:44:00,
2013-09-28 16:49:00,69.8,57.3,30.15,NW,323,0.0,0.0,64,0.00,,,0.01,WUHU216DAVISVP2,2013-09-28 20:49:00,
2013-09-28 16:54:00,69.8,56.6,30.14,NW,323,0.0,0.0,63,0.00,,,0.01,WUHU216DAVISVP2,2013-09-28 20:54:00,
2013-09-28 16:59:00,69.6,56.9,30.14,NW,323,0.0,0.0,64,0.00,,,0.01,WUHU216DAVISVP2,2013-09-28 20:59:00,
2013-09-28 17:04:00,69.6,57.3,30.14,NW,325,0.0,0.0,65,0.00,,,0.01,WUHU216DAVISVP2,2013-09-28 21:04:00,
2013-09-28 17:09:00,69.6,57.1,30.14,NW,325,0.0,2.0,64,0.00,,,0.01,WUHU216DAVISVP2,2013-09-28 21:09:00,
2013-09-28 17:14:00,69.4,57.3,30.14,NE,56,0.0,2.0,65,0.00,,,0.01,WUHU216DAVISVP2,2013-09-28 21:14:00,
2013-09-28 17:19:00,69.1,56.6,30.14,NNW,336,0.0,0.0,64,0.00,,,0.01,WUHU216DAVISVP2,2013-09-28 21:19:00,
2013-09-28 17:24:00,69.1,56.6,30.14,North,357,0.0,2.0,64,0.00,,,0.01,WUHU216DAVISVP2,2013-09-28 21:24:00,
2013-09-28 17:29:00,68.9,56.4,30.14,NW,306,1.0,2.0,64,0.00,,,0.01,WUHU216DAVISVP2,2013-09-28 21:29:00,
2013-09-28 17:34:00,68.8,56.3,30.14,NW,308,0.0,2.0,64,0.00,,,0.01,WUHU216DAVISVP2,2013-09-28 21:34:00,
2013-09-28 17:39:00,68.6,56.1,30.14,NNW,340,1.0,7.0,64,0.00,,,0.01,WUHU216DAVISVP2,2013-09-28 21:39:00,
2013-09-28 17:44:00,68.4,56.4,30.14,NNW,346,0.0,7.0,65,0.00,,,0.01,WUHU216DAVISVP2,2013-09-28 21:44:00,
2013-09-28 17:49:00,68.3,56.3,30.14,North,6,2.0,4.0,65,0.00,,,0.01,WUHU216DAVISVP2,2013-09-28 21:49:00,
2013-09-28 17:54:00,68.1,56.1,30.14,North,3,0.0,4.0,65,0.00,,,0.01,WUHU216DAVISVP2,2013-09-28 21:54:00,
2013-09-28 18:00:00,67.9,55.9,30.14,North,0,0.0,0.0,65,0.00,,,0.01,WUHU216DAVISVP2,2013-09-28 22:00:00,
2013-09-28 18:05:00,67.8,56.2,30.14,North,0,0.0,0.0,66,0.00,,,0.01,WUHU216DAVISVP2,2013-09-28 22:05:00,
2013-09-28 18:10:00,67.8,56.2,30.15,North,0,0.0,0.0,66,0.00,,,0.01,WUHU216DAVISVP2,2013-09-28 22:10:00,
2013-09-28 18:15:00,67.6,56.0,30.15,North,0,0.0,0.0,66,0.00,,,0.01,WUHU216DAVISVP2,2013-09-28 22:15:00,
2013-09-28 18:20:00,67.4,56.2,30.15,North,0,0.0,0.0,67,0.00,,,0.01,WUHU216DAVISVP2,2013-09-28 22:20:00,
2013-09-28 18:25:00,67.4,56.2,30.15,North,0,0.0,0.0,67,0.00,,,0.01,WUHU216DAVISVP2,2013-09-28 22:25:00,
2013-09-28 18:30:00,67.4,56.2,30.15,North,0,0.0,0.0,67,0.00,,,0.01,WUHU216DAVISVP2,2013-09-28 22:30:00,
2013-09-28 18:35:00,67.4,56.2,30.15,NW,322,1.0,2.0,67,0.00,,,0.01,WUHU216DAVISVP2,2013-09-28 22:35:00,
2013-09-28 18:40:00,67.4,56.2,30.15,NW,322,0.0,2.0,67,0.00,,,0.01,WUHU216DAVISVP2,2013-09-28 22:40:00,
2013-09-28 18:45:00,67.3,56.1,30.15,WNW,301,0.0,2.0,67,0.00,,,0.01,WUHU216DAVISVP2,2013-09-28 22:45:00,
2013-09-28 18:50:00,67.1,56.0,30.15,WNW,301,0.0,2.0,67,0.00,,,0.01,WUHU216DAVISVP2,2013-09-28 22:50:00,
2013-09-28 18:55:00,66.8,55.7,30.15,WNW,301,0.0,0.0,67,0.00,,,0.01,WUHU216DAVISVP2,2013-09-28 22:55:00,
2013-09-28 19:00:00,66.6,55.5,30.15,WNW,301,0.0,0.0,67,0.00,,,0.01,WUHU216DAVISVP2,2013-09-28 23:00:00,
2013-09-28 19:05:00,66.6,55.5,30.15,WNW,301,0.0,0.0,67,0.00,,,0.01,WUHU216DAVISVP2,2013-09-28 23:05:00,
2013-09-28 19:10:00,66.3,55.2,30.16,WNW,301,0.0,0.0,67,0.00,,,0.01,WUHU216DAVISVP2,2013-09-28 23:10:00,
2013-09-28 19:15:00,65.8,54.7,30.16,WNW,301,0.0,0.0,67,0.00,,,0.01,WUHU216DAVISVP2,2013-09-28 23:15:00,
2013-09-28 19:20:00,65.5,55.2,30.16,WNW,301,0.0,0.0,69,0.00,,,0.01,WUHU216DAVISVP2,2013-09-28 23:20:00,
2013-09-28 19:25:00,65.3,55.0,30.16,WNW,301,0.0,0.0,69,0.00,,,0.01,WUHU216DAVISVP2,2013-09-28 23:25:00,
2013-09-28 19:30:00,65.0,55.1,30.16,WNW,301,0.0,0.0,70,0.00,,,0.01,WUHU216DAVISVP2,2013-09-28 23:30:00,
2013-09-28 19:35:00,64.7,54.8,30.16,WNW,301,0.0,0.0,70,0.00,,,0.01,WUHU216DAVISVP2,2013-09-28 23:35:00,
2013-09-28 19:40:00,64.5,55.0,30.16,WNW,301,0.0,0.0,71,0.00,,,0.01,WUHU216DAVISVP2,2013-09-28 23:40:00,
2013-09-28 19:45:00,64.2,54.7,30.16,WNW,301,0.0,0.0,71,0.00,,,0.01,WUHU216DAVISVP2,2013-09-28 23:45:00,
2013-09-28 19:50:00,63.9,54.8,30.16,WNW,301,0.0,0.0,72,0.00,,,0.01,WUHU216DAVISVP2,2013-09-28 23:50:00,
2013-09-28 19:55:00,63.7,55.0,30.16,WNW,301,0.0,0.0,73,0.00,,,0.01,WUHU216DAVISVP2,2013-09-28 23:55:00,
2013-09-28 20:00:00,63.5,54.8,30.16,WNW,301,0.0,0.0,73,0.00,,,0.01,WUHU216DAVISVP2,2013-09-29 00:00:00,
2013-09-28 20:05:00,63.4,54.7,30.16,WNW,301,0.0,0.0,73,0.00,,,0.01,WUHU216DAVISVP2,2013-09-29 00:05:00,
2013-09-28 20:10:00,63.2,54.5,30.16,WNW,301,0.0,0.0,73,0.00,,,0.01,WUHU216DAVISVP2,2013-09-29 00:10:00,
2013-09-28 20:15:00,63.1,54.4,30.16,WNW,301,0.0,0.0,73,0.00,,,0.01,WUHU216DAVISVP2,2013-09-29 00:15:00,
2013-09-28 20:20:00,62.9,54.6,30.16,WNW,301,0.0,0.0,74,0.00,,,0.01,WUHU216DAVISVP2,2013-09-29 00:20:00,
2013-09-28 20:25:00,62.7,54.4,30.16,WNW,301,0.0,0.0,74,0.00,,,0.01,WUHU216DAVISVP2,2013-09-29 00:25:00,
2013-09-28 20:30:00,62.6,54.2,30.16,WNW,301,0.0,0.0,74,0.00,,,0.01,WUHU216DAVISVP2,2013-09-29 00:30:00,
2013-09-28 20:36:00,62.4,54.4,30.16,WNW,301,0.0,0.0,75,0.00,,,0.01,WUHU216DAVISVP2,2013-09-29 00:36:00,
2013-09-28 20:41:00,62.4,54.4,30.16,WNW,301,0.0,0.0,75,0.00,,,0.01,WUHU216DAVISVP2,2013-09-29 00:41:00,
2013-09-28 20:47:00,62.1,54.1,30.16,WNW,301,0.0,0.0,75,0.00,,,0.01,WUHU216DAVISVP2,2013-09-29 00:47:00,
2013-09-28 20:52:00,62.0,54.0,30.16,WNW,301,0.0,0.0,75,0.00,,,0.01,WUHU216DAVISVP2,2013-09-29 00:52:00,
2013-09-28 20:57:00,61.8,54.5,30.16,WNW,301,0.0,0.0,77,0.00,,,0.01,WUHU216DAVISVP2,2013-09-29 00:57:00,
2013-09-28 21:02:00,61.5,54.2,30.16,WNW,301,0.0,0.0,77,0.00,,,0.01,WUHU216DAVISVP2,2013-09-29 01:02:00,
2013-09-28 21:07:00,61.3,54.0,30.16,WNW,301,0.0,0.0,77,0.00,,,0.01,WUHU216DAVISVP2,2013-09-29 01:07:00,
2013-09-28 21:12:00,61.2,54.0,30.16,WNW,301,0.0,0.0,77,0.00,,,0.01,WUHU216DAVISVP2,2013-09-29 01:12:00,
2013-09-28 21:17:00,60.9,53.7,30.16,WNW,301,0.0,0.0,77,0.00,,,0.01,WUHU216DAVISVP2,2013-09-29 01:17:00,
2013-09-28 21:22:00,60.7,53.9,30.16,WNW,301,0.0,0.0,78,0.00,,,0.01,WUHU216DAVISVP2,2013-09-29 01:22:00,
2013-09-28 21:27:00,60.4,53.6,30.16,WNW,301,0.0,0.0,78,0.00,,,0.01,WUHU216DAVISVP2,2013-09-29 01:27:00,
2013-09-28 21:32:00,60.2,53.4,30.16,WNW,301,0.0,0.0,78,0.00,,,0.01,WUHU216DAVISVP2,2013-09-29 01:32:00,
2013-09-28 21:37:00,60.1,53.6,30.16,WNW,301,0.0,0.0,79,0.00,,,0.01,WUHU216DAVISVP2,2013-09-29 01:37:00,
2013-09-28 21:42:00,59.9,53.4,30.16,WNW,301,0.0,0.0,79,0.00,,,0.01,WUHU216DAVISVP2,2013-09-29 01:42:00,
2013-09-28 21:47:00,59.6,53.1,30.16,WNW,301,0.0,0.0,79,0.00,,,0.01,WUHU216DAVISVP2,2013-09-29 01:47:00,
2013-09-28 21:52:00,59.5,53.0,30.16,WNW,301,0.0,0.0,79,0.00,,,0.01,WUHU216DAVISVP2,2013-09-29 01:52:00,
2013-09-28 21:57:00,59.5,53.4,30.16,WNW,301,0.0,0.0,80,0.00,,,0.01,WUHU216DAVISVP2,2013-09-29 01:57:00,
2013-09-28 22:02:00,59.3,53.1,30.16,WNW,301,0.0,0.0,80,0.00,,,0.01,WUHU216DAVISVP2,2013-09-29 02:02:00,
2013-09-28 22:07:00,59.2,53.1,30.16,WNW,301,0.0,0.0,80,0.00,,,0.01,WUHU216DAVISVP2,2013-09-29 02:07:00,
2013-09-28 22:12:00,59.0,52.9,30.16,WNW,301,0.0,0.0,80,0.00,,,0.01,WUHU216DAVISVP2,2013-09-29 02:12:00,
2013-09-28 22:17:00,58.9,53.1,30.16,WNW,301,0.0,0.0,81,0.00,,,0.01,WUHU216DAVISVP2,2013-09-29 02:17:00,
2013-09-28 22:22:00,58.9,53.1,30.16,WNW,301,0.0,0.0,81,0.00,,,0.01,WUHU216DAVISVP2,2013-09-29 02:22:00,
2013-09-28 22:27:00,58.7,52.9,30.16,WNW,301,0.0,0.0,81,0.00,,,0.01,WUHU216DAVISVP2,2013-09-29 02:27:00,
2013-09-28 22:32:00,58.7,52.9,30.16,WNW,301,0.0,0.0,81,0.00,,,0.01,WUHU216DAVISVP2,2013-09-29 02:32:00,
2013-09-28 22:37:00,58.6,53.2,30.16,WNW,301,0.0,0.0,82,0.00,,,0.01,WUHU216DAVISVP2,2013-09-29 02:37:00,
2013-09-28 22:42:00,58.4,53.0,30.16,WNW,301,0.0,0.0,82,0.00,,,0.01,WUHU216DAVISVP2,2013-09-29 02:42:00,
2013-09-28 22:47:00,58.4,53.0,30.16,WNW,301,0.0,0.0,82,0.00,,,0.01,WUHU216DAVISVP2,2013-09-29 02:47:00,
2013-09-28 22:52:00,58.4,53.3,30.16,WNW,301,0.0,0.0,83,0.00,,,0.01,WUHU216DAVISVP2,2013-09-29 02:52:00,
2013-09-28 22:57:00,58.3,53.2,30.16,WNW,301,0.0,0.0,83,0.00,,,0.01,WUHU216DAVISVP2,2013-09-29 02:57:00,
2013-09-28 23:02:00,58.1,53.0,30.16,WNW,301,0.0,0.0,83,0.00,,,0.01,WUHU216DAVISVP2,2013-09-29 03:02:00,
2013-09-28 23:07:00,58.1,53.0,30.16,WNW,301,0.0,0.0,83,0.00,,,0.01,WUHU216DAVISVP2,2013-09-29 03:07:00,
2013-09-28 23:12:00,58.0,52.9,30.15,WNW,301,0.0,0.0,83,0.00,,,0.01,WUHU216DAVISVP2,2013-09-29 03:12:00,
2013-09-28 23:17:00,57.8,52.7,30.15,WNW,301,0.0,0.0,83,0.00,,,0.01,WUHU216DAVISVP2,2013-09-29 03:17:00,
2013-09-28 23:22:00,57.6,52.5,30.15,WNW,301,0.0,0.0,83,0.00,,,0.01,WUHU216DAVISVP2,2013-09-29 03:22:00,
2013-09-28 23:27:00,57.5,52.4,30.15,WNW,301,0.0,0.0,83,0.00,,,0.01,WUHU216DAVISVP2,2013-09-29 03:27:00,
2013-09-28 23:32:00,57.5,52.7,30.15,WNW,301,0.0,0.0,84,0.00,,,0.01,WUHU216DAVISVP2,2013-09-29 03:32:00,
2013-09-28 23:37:00,57.3,52.5,30.15,WNW,301,0.0,0.0,84,0.00,,,0.01,WUHU216DAVISVP2,2013-09-29 03:37:00,
2013-09-28 23:42:00,57.2,52.4,30.15,WNW,301,0.0,0.0,84,0.00,,,0.01,WUHU216DAVISVP2,2013-09-29 03:42:00,
2013-09-28 23:47:00,57.2,52.4,30.15,WNW,301,0.0,0.0,84,0.00,,,0.01,WUHU216DAVISVP2,2013-09-29 03:47:00,
2013-09-28 23:52:00,57.0,52.2,30.15,WNW,301,0.0,0.0,84,0.00,,,0.01,WUHU216DAVISVP2,2013-09-29 03:52:00,
2013-09-28 23:57:00,57.2,52.4,30.15,WNW,301,0.0,0.0,84,0.00,,,0.01,WUHU216DAVISVP2,2013-09-29 03:57:00,